Time;durP1;ratioP1;P1;durP2;ratioP2;P2;SDS_P1;SDS_P2;PMS_P1;PMS_P2;Temp;Humidity;BMP_temperature;BMP_pressure;BME280_temperature;BME280_humidity;BME280_pressure;Samples;Min_cycle;Max_cycle;Signal;HPM_P1;HPM_P2
2022/09/15 00:01:05;;;;;;;4.30;2.83;;;;;;;12.32;100.00;99525.50;4974811;28;20470;-81
2022/09/15 00:03:32;;;;;;;5.82;2.42;;;;;;;12.20;100.00;99518.16;4991321;28;20035;-81
2022/09/15 00:05:59;;;;;;;4.20;2.65;;;;;;;12.11;100.00;99523.84;4989942;28;20045;-81
2022/09/15 00:08:26;;;;;;;4.78;2.88;;;;;;;12.07;100.00;99517.81;4969466;28;20520;-81
2022/09/15 00:11:04;;;;;;;4.13;2.50;;;;;;;11.99;100.00;99519.94;4990344;28;20065;-81
2022/09/15 00:13:32;;;;;;;3.20;2.63;;;;;;;12.01;100.00;99522.53;4977216;28;20042;-80
2022/09/15 00:15:59;;;;;;;7.05;2.65;;;;;;;11.93;100.00;99525.50;4985754;28;20042;-81
2022/09/15 00:18:26;;;;;;;5.45;2.90;;;;;;;11.83;100.00;99517.13;4955853;28;20046;-80
2022/09/15 00:20:52;;;;;;;4.35;2.85;;;;;;;11.76;100.00;99512.13;4972544;28;20054;-81
2022/09/15 00:23:19;;;;;;;5.68;2.85;;;;;;;11.69;100.00;99510.69;4958150;28;20615;-81
2022/09/15 00:25:47;;;;;;;5.15;2.80;;;;;;;11.61;100.00;99511.03;4973383;28;20053;-81
2022/09/15 00:28:15;;;;;;;4.47;2.78;;;;;;;11.65;100.00;99512.59;4971163;28;20043;-81
2022/09/15 00:30:48;;;;;;;4.65;2.60;;;;;;;11.59;100.00;99515.50;4974567;28;20046;-80
2022/09/15 00:33:16;;;;;;;4.05;2.50;;;;;;;11.49;100.00;99522.97;4971950;28;20109;-81
2022/09/15 00:35:44;;;;;;;4.68;2.85;;;;;;;11.51;100.00;99515.81;4970150;28;20053;-81
2022/09/15 00:38:12;;;;;;;5.40;3.30;;;;;;;11.51;100.00;99520.25;5047109;22;20039;-84
2022/09/15 00:40:43;;;;;;;6.20;2.75;;;;;;;11.37;100.00;99510.28;4995321;28;20099;-85
2022/09/15 00:43:11;;;;;;;6.28;3.45;;;;;;;11.30;100.00;99511.44;5003208;28;20037;-85
2022/09/15 00:45:37;;;;;;;4.45;2.90;;;;;;;11.26;100.00;99508.06;4981114;28;20042;-85
2022/09/15 00:48:05;;;;;;;4.38;2.85;;;;;;;11.25;100.00;99511.63;4996024;28;20048;-85
2022/09/15 00:50:33;;;;;;;5.22;3.22;;;;;;;11.21;100.00;99507.41;4998910;28;20045;-86
2022/09/15 00:53:00;;;;;;;5.80;2.92;;;;;;;11.15;100.00;99512.06;4993004;28;20042;-84
2022/09/15 00:55:31;;;;;;;5.00;3.05;;;;;;;11.20;100.00;99513.63;4990751;28;20406;-85
2022/09/15 00:58:03;;;;;;;3.92;2.97;;;;;;;11.04;100.00;99512.53;5006060;28;20612;-85
2022/09/15 01:00:29;;;;;;;4.93;2.60;;;;;;;10.90;100.00;99514.84;4979387;28;20045;-84
2022/09/15 01:02:56;;;;;;;5.97;3.13;;;;;;;10.85;100.00;99515.06;5001585;28;20516;-86
2022/09/15 01:05:31;;;;;;;4.57;3.17;;;;;;;10.81;100.00;99512.59;4993408;28;20038;-85
2022/09/15 01:08:04;;;;;;;5.97;2.60;;;;;;;10.77;100.00;99516.28;4993513;28;20044;-85
2022/09/15 01:10:37;;;;;;;7.45;2.95;;;;;;;10.75;100.00;99513.69;4984472;28;20116;-85
2022/09/15 01:13:09;;;;;;;5.85;3.00;;;;;;;10.67;100.00;99513.97;5005711;28;20095;-85
2022/09/15 01:16:02;;;;;;;7.32;3.05;;;;;;;10.66;100.00;99506.13;4978054;28;20472;-85
2022/09/15 01:18:53;;;;;;;6.63;2.75;;;;;;;10.57;100.00;99507.34;4990620;28;20095;-85
2022/09/15 01:21:45;;;;;;;5.32;2.95;;;;;;;10.56;100.00;99510.03;5021284;28;20051;-82
2022/09/15 01:24:33;;;;;;;4.70;2.90;;;;;;;10.60;100.00;99507.25;5003623;28;20046;-82
2022/09/15 01:27:06;;;;;;;6.93;3.40;;;;;;;10.54;100.00;99512.75;4992877;28;20048;-84
2022/09/15 01:29:55;;;;;;;6.38;3.05;;;;;;;10.44;100.00;99503.47;5013932;28;20467;-84
2022/09/15 01:33:05;;;;;;;4.95;3.20;;;;;;;10.41;100.00;99509.69;5009991;28;20494;-84
2022/09/15 01:35:55;;;;;;;4.93;3.22;;;;;;;10.40;100.00;99513.25;4994537;28;20038;-85
2022/09/15 01:38:34;;;;;;;5.75;3.92;;;;;;;10.32;100.00;99517.13;4991259;28;20065;-83
2022/09/15 01:41:28;;;;;;;4.93;3.10;;;;;;;10.30;100.00;99516.31;4998473;28;20052;-82
2022/09/15 01:44:01;;;;;;;4.85;3.15;;;;;;;10.36;100.00;99518.72;4998269;28;20111;-84
2022/09/15 01:46:30;;;;;;;5.53;3.15;;;;;;;10.29;100.00;99515.47;4980801;28;20091;-84
2022/09/15 01:48:59;;;;;;;4.85;3.15;;;;;;;10.33;100.00;99510.91;4986193;28;20124;-84
2022/09/15 01:51:26;;;;;;;7.75;3.70;;;;;;;10.26;100.00;99515.59;5003021;28;20058;-84
2022/09/15 01:53:53;;;;;;;4.68;3.08;;;;;;;10.19;100.00;99511.41;4997065;28;20175;-84
2022/09/15 01:56:20;;;;;;;5.45;2.97;;;;;;;10.23;100.00;99515.69;4996552;28;20046;-83
2022/09/15 01:58:48;;;;;;;4.57;3.40;;;;;;;10.20;100.00;99522.84;4996365;28;20037;-83
2022/09/15 02:01:28;;;;;;;4.53;2.95;;;;;;;10.13;100.00;99519.56;4973880;28;20045;-84
2022/09/15 02:03:59;;;;;;;4.55;2.60;;;;;;;10.14;100.00;99508.06;4978226;28;20045;-84
2022/09/15 02:06:36;;;;;;;5.50;2.90;;;;;;;10.07;100.00;99511.84;5010423;28;20048;-84
2022/09/15 02:09:14;;;;;;;5.60;3.45;;;;;;;10.10;100.00;99514.41;4997853;28;20430;-84
2022/09/15 02:11:57;;;;;;;4.68;2.67;;;;;;;10.01;100.00;99518.22;4998481;28;20045;-84
2022/09/15 02:14:41;;;;;;;5.43;3.20;;;;;;;10.01;100.00;99520.00;4994544;28;20112;-85
2022/09/15 02:17:13;;;;;;;6.60;3.47;;;;;;;9.97;100.00;99519.25;4997474;28;20448;-85
2022/09/15 02:19:44;;;;;;;5.38;3.05;;;;;;;10.03;100.00;99511.13;5006715;28;20054;-83
2022/09/15 02:22:23;;;;;;;6.22;3.10;;;;;;;9.97;100.00;99521.03;4991830;28;20465;-84
2022/09/15 02:24:58;;;;;;;6.70;3.22;;;;;;;9.92;100.00;99515.03;4993395;28;20053;-85
2022/09/15 02:27:28;;;;;;;8.77;3.30;;;;;;;9.91;100.00;99521.22;4992004;28;20065;-84
2022/09/15 02:29:59;;;;;;;6.25;3.17;;;;;;;9.87;100.00;99515.22;4998186;28;20038;-83
2022/09/15 02:32:27;;;;;;;4.63;3.03;;;;;;;9.86;100.00;99513.50;5009697;28;20042;-84
2022/09/15 02:34:56;;;;;;;3.70;2.80;;;;;;;9.82;100.00;99506.59;5004662;28;20083;-83
2022/09/15 02:37:23;;;;;;;5.35;3.65;;;;;;;9.82;100.00;99501.31;4976243;28;20037;-83
2022/09/15 02:39:53;;;;;;;4.03;3.22;;;;;;;9.85;100.00;99507.38;4995626;28;20571;-84
2022/09/15 02:42:28;;;;;;;6.30;3.15;;;;;;;9.81;100.00;99500.47;4987817;28;20068;-84
2022/09/15 02:44:55;;;;;;;7.18;3.33;;;;;;;9.85;100.00;99496.81;5011203;28;20402;-83
2022/09/15 02:47:22;;;;;;;6.13;3.65;;;;;;;9.89;100.00;99497.56;4996683;28;20092;-84
2022/09/15 02:49:49;;;;;;;5.85;3.15;;;;;;;9.88;100.00;99494.06;4986303;28;20504;-84
2022/09/15 02:52:16;;;;;;;7.68;3.80;;;;;;;9.87;100.00;99494.97;4984609;28;20565;-83
2022/09/15 02:54:43;;;;;;;6.70;3.10;;;;;;;9.88;100.00;99501.97;4992738;28;20046;-83
2022/09/15 02:57:09;;;;;;;10.07;4.93;;;;;;;9.98;100.00;99499.00;4995276;28;20037;-84
2022/09/15 03:00:12;;;;;;;8.02;3.50;;;;;;;9.95;100.00;99489.44;4983578;28;20080;-83
2022/09/15 03:02:28;;;;;;;6.57;3.70;;;;;;;10.00;100.00;99497.16;5014459;28;20076;-84
2022/09/15 03:04:55;;;;;;;5.90;3.58;;;;;;;10.06;100.00;99489.03;4991138;28;20140;-83
2022/09/15 03:07:23;;;;;;;6.82;4.35;;;;;;;10.07;100.00;99498.66;4985286;28;20046;-84
2022/09/15 03:09:50;;;;;;;5.60;3.60;;;;;;;10.01;100.00;99497.13;4997347;28;20140;-84
2022/09/15 03:12:17;;;;;;;8.45;3.20;;;;;;;10.01;100.00;99491.00;4977503;28;20062;-83
2022/09/15 03:14:45;;;;;;;5.40;3.83;;;;;;;10.00;100.00;99495.38;4996748;28;20052;-84
2022/09/15 03:17:12;;;;;;;7.25;3.38;;;;;;;9.98;100.00;99497.22;4981251;28;20049;-83
2022/09/15 03:19:39;;;;;;;5.43;3.65;;;;;;;9.97;100.00;99498.13;4999410;28;20046;-83
2022/09/15 03:22:06;;;;;;;6.25;3.08;;;;;;;9.91;100.00;99493.06;4985987;28;20575;-83
2022/09/15 03:24:32;;;;;;;5.28;3.58;;;;;;;9.95;100.00;99499.13;4988538;28;20049;-84
2022/09/15 03:26:59;;;;;;;9.23;3.75;;;;;;;9.87;100.00;99504.66;4991881;28;20037;-83
2022/09/15 03:29:26;;;;;;;6.38;3.47;;;;;;;9.84;100.00;99497.75;4973149;28;20041;-83
2022/09/15 03:31:52;;;;;;;6.57;3.45;;;;;;;9.83;100.00;99500.41;4987865;28;20058;-84
2022/09/15 03:34:19;;;;;;;6.10;3.33;;;;;;;9.79;100.00;99502.31;4990494;28;20129;-83
2022/09/15 03:36:46;;;;;;;8.82;3.20;;;;;;;9.77;100.00;99501.50;4995301;28;20041;-82
2022/09/15 03:39:13;;;;;;;6.40;3.78;;;;;;;9.76;100.00;99494.50;4977379;28;20042;-82
2022/09/15 03:41:39;;;;;;;7.88;3.90;;;;;;;9.78;100.00;99490.03;4988105;28;20052;-83
2022/09/15 03:44:06;;;;;;;5.55;3.65;;;;;;;9.84;100.00;99488.97;5012827;28;20045;-82
2022/09/15 03:46:34;;;;;;;7.38;3.72;;;;;;;9.90;100.00;99479.94;4979832;28;20120;-82
2022/09/15 03:49:00;;;;;;;5.00;3.92;;;;;;;9.94;100.00;99486.84;4985754;28;20057;-82
2022/09/15 03:51:27;;;;;;;6.63;4.00;;;;;;;9.92;100.00;99481.63;4989115;28;20577;-83
2022/09/15 03:53:54;;;;;;;10.05;4.00;;;;;;;9.94;100.00;99485.06;4964656;28;20046;-82
2022/09/15 03:56:24;;;;;;;6.13;4.13;;;;;;;9.92;100.00;99480.75;4978445;28;20044;-83
2022/09/15 03:58:51;;;;;;;9.13;3.50;;;;;;;9.96;100.00;99482.38;5012322;28;20037;-82
2022/09/15 04:01:19;;;;;;;11.13;4.95;;;;;;;10.01;100.00;99491.00;4989632;28;20046;-83
2022/09/15 04:03:46;;;;;;;6.88;4.00;;;;;;;9.97;100.00;99481.44;4989572;28;20077;-83
2022/09/15 04:06:18;;;;;;;6.40;4.22;;;;;;;10.05;100.00;99480.25;4969785;28;20061;-83
2022/09/15 04:08:47;;;;;;;5.72;3.53;;;;;;;10.08;100.00;99482.75;5001438;28;20041;-83
2022/09/15 04:11:15;;;;;;;6.65;4.40;;;;;;;10.11;100.00;99476.53;4995314;28;20046;-82
2022/09/15 04:13:42;;;;;;;7.30;4.57;;;;;;;10.10;100.00;99480.94;4976122;28;20466;-82
2022/09/15 04:16:12;;;;;;;6.20;4.35;;;;;;;10.12;100.00;99475.59;4971455;28;20578;-81
2022/09/15 04:18:39;;;;;;;6.68;4.38;;;;;;;10.21;100.00;99479.69;4991301;28;20132;-82
2022/09/15 04:21:10;;;;;;;8.80;5.15;;;;;;;10.29;100.00;99478.50;4960507;28;20042;-83
2022/09/15 04:23:37;;;;;;;7.55;4.93;;;;;;;10.47;100.00;99489.28;4971025;28;20079;-83
2022/09/15 04:26:07;;;;;;;8.75;4.18;;;;;;;10.39;100.00;99482.50;4980286;28;20095;-84
2022/09/15 04:28:36;;;;;;;8.82;4.47;;;;;;;10.41;100.00;99480.66;4996336;28;20046;-83
2022/09/15 04:31:05;;;;;;;6.63;4.07;;;;;;;10.41;100.00;99482.44;4979205;28;20045;-83
2022/09/15 04:33:31;;;;;;;9.00;4.78;;;;;;;10.42;100.00;99471.84;4977759;28;20088;-83
2022/09/15 04:35:59;;;;;;;9.23;4.07;;;;;;;10.39;100.00;99477.22;4978370;28;20046;-83
2022/09/15 04:38:27;;;;;;;7.30;4.35;;;;;;;10.45;100.00;99470.84;4977270;28;20049;-83
2022/09/15 04:40:54;;;;;;;7.22;3.80;;;;;;;10.45;100.00;99468.22;4993492;28;20045;-83
2022/09/15 04:43:21;;;;;;;5.40;4.07;;;;;;;10.41;100.00;99477.16;4993625;28;20065;-83
2022/09/15 04:45:48;;;;;;;6.80;4.40;;;;;;;10.41;100.00;99480.66;4976701;28;20041;-84
2022/09/15 04:48:14;;;;;;;8.52;4.70;;;;;;;10.52;100.00;99479.41;4997098;28;20038;-85
2022/09/15 04:50:41;;;;;;;10.32;4.40;;;;;;;10.59;100.00;99480.84;4991647;28;20049;-86
2022/09/15 04:53:08;;;;;;;7.10;4.78;;;;;;;10.60;100.00;99478.19;4992546;28;20491;-84
2022/09/15 04:55:35;;;;;;;7.13;4.85;;;;;;;10.67;100.00;99479.63;4985276;28;20088;-85
2022/09/15 04:58:02;;;;;;;7.90;5.20;;;;;;;10.77;100.00;99476.66;4995458;28;20049;-84
2022/09/15 05:00:30;;;;;;;10.40;5.25;;;;;;;10.70;100.00;99474.25;4997148;28;20764;-84
2022/09/15 05:02:58;;;;;;;9.68;5.15;;;;;;;10.74;100.00;99474.97;4978136;28;20049;-85
2022/09/15 05:05:25;;;;;;;9.63;4.22;;;;;;;10.79;100.00;99485.38;4976100;28;20096;-85
2022/09/15 05:07:52;;;;;;;7.07;4.43;;;;;;;10.81;100.00;99473.81;4960865;28;20522;-85
2022/09/15 05:10:19;;;;;;;9.50;4.28;;;;;;;10.87;100.00;99470.94;4980450;28;20045;-84
2022/09/15 05:12:46;;;;;;;8.85;5.18;;;;;;;10.88;100.00;99474.44;4979925;28;20048;-85
2022/09/15 05:15:12;;;;;;;7.57;4.38;;;;;;;10.91;100.00;99467.22;4979530;28;20056;-85
2022/09/15 05:17:39;;;;;;;7.32;4.20;;;;;;;10.94;100.00;99469.75;4981819;28;20056;-85
2022/09/15 05:20:06;;;;;;;7.75;4.07;;;;;;;10.92;100.00;99473.38;4985408;28;20049;-84
2022/09/15 05:22:33;;;;;;;7.72;4.57;;;;;;;10.92;100.00;99474.22;4994213;28;20506;-84
2022/09/15 05:25:05;;;;;;;12.65;4.82;;;;;;;11.02;100.00;99466.81;4995992;28;20041;-84
2022/09/15 05:27:32;;;;;;;12.02;5.00;;;;;;;10.98;100.00;99465.19;4973674;28;20037;-84
2022/09/15 05:29:59;;;;;;;9.30;4.28;;;;;;;11.08;100.00;99463.88;4986860;28;20069;-85
2022/09/15 05:32:45;;;;;;;7.75;4.55;;;;;;;10.97;100.00;99469.63;4992564;28;20652;-84
2022/09/15 05:35:12;;;;;;;8.15;4.32;;;;;;;10.93;100.00;99475.09;4978548;28;20052;-85
2022/09/15 05:37:39;;;;;;;5.40;4.15;;;;;;;10.93;100.00;99477.72;4993060;28;20045;-84
2022/09/15 05:40:06;;;;;;;8.90;4.22;;;;;;;11.06;100.00;99480.75;4977718;28;20052;-84
2022/09/15 05:42:34;;;;;;;8.18;4.85;;;;;;;11.20;100.00;99484.53;4988827;28;20041;-85
2022/09/15 05:45:01;;;;;;;7.93;4.50;;;;;;;11.22;100.00;99474.75;4975501;28;20058;-85
2022/09/15 05:47:27;;;;;;;7.22;3.85;;;;;;;11.37;100.00;99475.03;4962445;28;20429;-84
2022/09/15 05:49:54;;;;;;;8.75;4.80;;;;;;;11.39;100.00;99474.03;4992183;28;20491;-84
2022/09/15 05:52:21;;;;;;;7.68;4.07;;;;;;;11.41;100.00;99479.25;4977454;28;20676;-84
2022/09/15 05:54:47;;;;;;;10.98;4.03;;;;;;;11.38;100.00;99477.63;4981789;28;20045;-86
2022/09/15 05:57:14;;;;;;;6.95;4.35;;;;;;;11.52;100.00;99479.69;4989930;28;20046;-85
2022/09/15 05:59:42;;;;;;;8.32;4.20;;;;;;;11.51;100.00;99485.88;4994178;28;20099;-85
2022/09/15 06:02:10;;;;;;;8.27;4.45;;;;;;;11.59;100.00;99482.91;4971310;28;20042;-84
2022/09/15 06:04:37;;;;;;;6.85;4.47;;;;;;;11.73;100.00;99481.38;4976715;28;20104;-83
2022/09/15 06:07:04;;;;;;;8.50;3.97;;;;;;;11.75;100.00;99487.44;5010069;28;20037;-84
2022/09/15 06:09:31;;;;;;;7.60;3.75;;;;;;;11.76;100.00;99483.88;4995706;28;20671;-84
2022/09/15 06:11:57;;;;;;;4.93;3.38;;;;;;;11.78;100.00;99489.13;4996155;28;20045;-84
2022/09/15 06:14:24;;;;;;;11.27;4.43;;;;;;;11.81;100.00;99489.00;4999105;28;20497;-83
2022/09/15 06:16:51;;;;;;;6.57;4.00;;;;;;;11.83;100.00;99488.00;4977414;28;20125;-86
2022/09/15 06:19:18;;;;;;;6.47;3.90;;;;;;;11.93;100.00;99488.44;4997734;28;20140;-84
2022/09/15 06:21:44;;;;;;;7.97;4.18;;;;;;;11.87;100.00;99488.75;4985618;28;20453;-82
2022/09/15 06:24:11;;;;;;;7.38;3.95;;;;;;;12.01;100.00;99490.75;4993811;28;20469;-84
2022/09/15 06:26:38;;;;;;;7.95;3.95;;;;;;;12.12;100.00;99488.50;4977083;28;20546;-84
2022/09/15 06:29:04;;;;;;;8.10;3.95;;;;;;;12.19;100.00;99483.75;4995428;28;20052;-83
2022/09/15 06:31:32;;;;;;;7.45;3.85;;;;;;;12.25;100.00;99489.66;4967961;28;20057;-84
2022/09/15 06:34:00;;;;;;;8.13;4.00;;;;;;;12.30;100.00;99492.94;4996964;28;20067;-83
2022/09/15 06:36:28;;;;;;;6.68;3.22;;;;;;;12.28;100.00;99494.81;4991884;28;20470;-84
2022/09/15 06:38:54;;;;;;;7.50;3.72;;;;;;;12.32;100.00;99490.22;4996800;28;20048;-84
2022/09/15 06:41:21;;;;;;;6.38;3.97;;;;;;;12.33;100.00;99498.09;4991840;28;20042;-83
2022/09/15 06:43:48;;;;;;;6.20;3.70;;;;;;;12.40;100.00;99496.88;4982821;28;20058;-81
2022/09/15 06:46:23;;;;;;;5.75;3.42;;;;;;;12.53;100.00;99501.63;4996720;28;20525;-82
2022/09/15 06:48:52;;;;;;;5.88;3.20;;;;;;;12.51;100.00;99508.78;5101506;23;20512;-81
2022/09/15 06:51:21;;;;;;;4.05;3.30;;;;;;;12.40;100.00;99503.97;4982756;28;20057;-82
2022/09/15 06:53:48;;;;;;;5.72;3.88;;;;;;;12.60;100.00;99503.88;4975431;28;20038;-81
2022/09/15 06:56:18;;;;;;;5.07;3.13;;;;;;;12.60;100.00;99510.97;4969747;28;20102;-81
2022/09/15 06:58:45;;;;;;;6.50;4.13;;;;;;;12.63;100.00;99505.56;4988161;28;20100;-81
2022/09/15 07:01:17;;;;;;;5.45;3.50;;;;;;;12.63;100.00;99513.50;4974658;28;20514;-81
2022/09/15 07:03:44;;;;;;;5.65;3.80;;;;;;;12.70;100.00;99500.84;4972048;28;20093;-80
2022/09/15 07:06:11;;;;;;;5.38;3.53;;;;;;;12.79;100.00;99513.66;4976344;28;20039;-80
2022/09/15 07:08:38;;;;;;;8.65;3.53;;;;;;;12.92;100.00;99510.31;4972369;28;20051;-81
2022/09/15 07:11:06;;;;;;;5.43;3.20;;;;;;;12.99;100.00;99510.03;4981285;28;20047;-82
2022/09/15 07:13:33;;;;;;;6.53;3.50;;;;;;;13.09;100.00;99500.69;4965444;28;20043;-81
2022/09/15 07:16:02;;;;;;;7.50;3.65;;;;;;;13.27;100.00;99499.78;4986723;28;20066;-80
2022/09/15 07:18:29;;;;;;;6.45;3.58;;;;;;;13.33;100.00;99494.19;4977161;28;20157;-80
2022/09/15 07:21:02;;;;;;;9.35;3.45;;;;;;;13.35;100.00;99489.66;4961645;28;20077;-81
2022/09/15 07:23:28;;;;;;;4.95;2.92;;;;;;;13.35;100.00;99491.44;4944613;28;20039;-81
2022/09/15 07:26:13;;;;;;;4.75;3.00;;;;;;;13.31;100.00;99493.41;4984797;28;20046;-80
2022/09/15 07:28:41;;;;;;;6.57;3.00;;;;;;;13.49;100.00;99497.78;4983544;28;20111;-80
2022/09/15 07:31:09;;;;;;;5.72;3.03;;;;;;;13.43;100.00;99508.69;4968637;28;20050;-81
2022/09/15 07:33:36;;;;;;;7.30;2.90;;;;;;;13.51;100.00;99516.28;4970384;28;20108;-81
2022/09/15 07:36:05;;;;;;;4.75;2.55;;;;;;;13.57;100.00;99526.59;4974614;28;20034;-80
2022/09/15 07:38:32;;;;;;;4.57;2.60;;;;;;;13.74;100.00;99513.31;4976404;28;20418;-80
2022/09/15 07:41:07;;;;;;;6.00;2.92;;;;;;;13.87;100.00;99512.66;4956581;28;20047;-80
2022/09/15 07:43:34;;;;;;;8.02;3.50;;;;;;;13.93;100.00;99518.50;4981723;28;20246;-80
2022/09/15 07:46:01;;;;;;;6.20;3.15;;;;;;;14.04;100.00;99512.63;4956093;28;20555;-80
2022/09/15 07:48:28;;;;;;;5.25;2.80;;;;;;;14.03;100.00;99514.44;4954933;28;20050;-81
2022/09/15 07:50:55;;;;;;;3.53;2.53;;;;;;;14.00;100.00;99527.88;4958237;28;20068;-81
2022/09/15 07:53:22;;;;;;;5.63;2.50;;;;;;;14.10;100.00;99528.25;4976608;28;20080;-80
2022/09/15 07:55:52;;;;;;;4.07;2.00;;;;;;;14.21;100.00;99530.31;4990025;28;20137;-80
2022/09/15 07:58:19;;;;;;;5.22;2.40;;;;;;;14.12;100.00;99534.34;4969583;28;20096;-81
2022/09/15 08:00:46;;;;;;;4.85;2.65;;;;;;;14.24;100.00;99538.16;4956726;28;20042;-80
2022/09/15 08:03:14;;;;;;;3.05;2.30;;;;;;;14.29;100.00;99529.00;4997274;28;20560;-80
2022/09/15 08:05:41;;;;;;;4.18;2.33;;;;;;;14.37;100.00;99531.22;4974264;28;20047;-80
2022/09/15 08:08:11;;;;;;;3.58;2.13;;;;;;;14.39;100.00;99536.47;4980138;28;20423;-80
2022/09/15 08:10:40;;;;;;;3.42;2.20;;;;;;;14.43;100.00;99533.56;5000219;28;20038;-80
2022/09/15 08:13:07;;;;;;;4.50;2.10;;;;;;;14.43;100.00;99533.56;4975223;28;20038;-80
2022/09/15 08:15:37;;;;;;;4.60;2.25;;;;;;;14.44;100.00;99531.75;4954156;28;20042;-81
2022/09/15 08:18:04;;;;;;;3.35;1.70;;;;;;;14.56;100.00;99534.66;4958879;28;20043;-79
2022/09/15 08:20:32;;;;;;;3.72;1.83;;;;;;;14.57;100.00;99544.34;4972230;28;20833;-80
2022/09/15 08:22:59;;;;;;;4.07;1.60;;;;;;;14.57;100.00;99549.66;4958960;28;20041;-80
2022/09/15 08:25:25;;;;;;;5.00;2.05;;;;;;;14.68;100.00;99549.06;4983277;28;20102;-81
2022/09/15 08:27:53;;;;;;;4.32;1.90;;;;;;;14.82;100.00;99543.00;4972096;28;20035;-79
2022/09/15 08:30:20;;;;;;;3.40;2.05;;;;;;;14.99;100.00;99553.53;5003594;28;20046;-79
2022/09/15 08:32:48;;;;;;;2.72;1.60;;;;;;;15.03;100.00;99552.41;4970528;28;20130;-80
2022/09/15 08:35:16;;;;;;;3.15;1.60;;;;;;;15.09;100.00;99551.22;4965041;28;20109;-81
2022/09/15 08:37:42;;;;;;;3.67;1.60;;;;;;;15.23;100.00;99539.81;4978948;28;20038;-80
2022/09/15 08:40:15;;;;;;;3.80;1.90;;;;;;;15.32;100.00;99547.25;4959251;28;20049;-79
2022/09/15 08:42:44;;;;;;;8.55;2.28;;;;;;;15.33;98.98;99547.16;4971795;28;20077;-79
2022/09/15 08:45:28;;;;;;;3.33;2.17;;;;;;;15.25;99.81;99540.56;4991524;28;20488;-78
2022/09/15 08:48:00;;;;;;;3.05;1.50;;;;;;;15.40;99.09;99543.19;4965258;28;20053;-80
2022/09/15 08:50:31;;;;;;;3.15;1.58;;;;;;;15.27;97.76;99541.31;4968118;28;20046;-81
2022/09/15 08:53:01;;;;;;;3.65;1.83;;;;;;;15.47;98.12;99552.53;4964511;28;20102;-81
2022/09/15 08:55:40;;;;;;;2.15;1.35;;;;;;;15.64;97.97;99545.41;4988234;28;20050;-81
2022/09/15 08:58:13;;;;;;;3.95;1.50;;;;;;;15.70;96.62;99556.53;4962562;28;20470;-81
2022/09/15 09:00:40;;;;;;;2.03;1.60;;;;;;;15.69;93.52;99559.28;4989560;28;20291;-80
2022/09/15 09:03:36;;;;;;;3.13;1.63;;;;;;;15.87;95.23;99550.22;4984535;28;20054;-81
2022/09/15 09:06:10;;;;;;;4.05;2.08;;;;;;;15.91;90.54;99556.22;4971862;28;20082;-80
2022/09/15 09:08:59;;;;;;;5.10;1.40;;;;;;;15.93;92.74;99551.66;4964468;28;20038;-80
2022/09/15 09:11:47;;;;;;;2.15;1.42;;;;;;;16.12;93.07;99557.56;5004410;28;20475;-81
2022/09/15 09:14:26;;;;;;;3.92;1.90;;;;;;;16.07;88.09;99549.03;4985049;28;20049;-81
2022/09/15 09:17:12;;;;;;;3.47;1.90;;;;;;;16.08;89.09;99563.19;4990883;28;20038;-81
2022/09/15 09:20:17;;;;;;;3.22;1.90;;;;;;;16.09;90.79;99547.13;4974106;28;20054;-81
2022/09/15 09:22:44;;;;;;;;;;;;;;;15.95;91.78;99550.59;4973444;28;20386;-80
2022/09/15 09:25:13;;;;;;;3.72;2.42;;;;;;;15.93;94.46;99552.50;4985120;28;19926;-80
2022/09/15 09:27:53;;;;;;;5.03;2.00;;;;;;;15.99;92.92;99544.16;4962958;28;20042;-80
2022/09/15 09:30:24;;;;;;;4.43;2.00;;;;;;;15.90;93.95;99555.38;4954903;28;20138;-80
2022/09/15 09:33:09;;;;;;;2.72;1.90;;;;;;;15.84;94.36;99550.41;4960913;28;20304;-80
2022/09/15 09:35:45;;;;;;;5.82;2.55;;;;;;;15.83;93.44;99556.69;4974718;28;20422;-82
2022/09/15 09:38:18;;;;;;;2.75;1.75;;;;;;;15.93;95.05;99546.31;4973970;28;20049;-80
2022/09/15 09:40:45;;;;;;;3.25;2.05;;;;;;;16.10;94.77;99554.16;4956599;28;20051;-79
2022/09/15 09:43:12;;;;;;;3.95;1.90;;;;;;;15.98;92.14;99552.25;4964658;28;20420;-80
2022/09/15 09:45:39;;;;;;;10.23;2.25;;;;;;;16.14;91.90;99563.66;4949908;28;20038;-81
2022/09/15 09:48:20;;;;;;;3.65;2.10;;;;;;;16.53;93.61;99554.16;4979612;28;20470;-81
2022/09/15 09:50:49;;;;;;;3.38;2.00;;;;;;;16.92;91.47;99547.31;4987423;28;20045;-80
2022/09/15 09:53:24;;;;;;;3.95;2.10;;;;;;;17.35;89.91;99548.88;4961833;28;20117;-81
2022/09/15 09:56:10;;;;;;;4.45;1.60;;;;;;;17.96;82.37;99528.75;4968604;28;20050;-81
2022/09/15 09:58:37;;;;;;;5.88;2.10;;;;;;;18.09;78.48;99534.13;4980696;28;20046;-81
2022/09/15 10:01:12;;;;;;;3.08;1.50;;;;;;;18.34;76.49;99533.25;4975670;28;20048;-81
2022/09/15 10:03:42;;;;;;;6.30;2.00;;;;;;;18.35;75.95;99532.28;4976891;28;20042;-80
2022/09/15 10:06:17;;;;;;;4.88;1.85;;;;;;;18.38;77.98;99536.56;4963743;28;20066;-81
2022/09/15 10:09:04;;;;;;;2.35;1.52;;;;;;;18.22;76.63;99529.59;4961568;28;20046;-82
2022/09/15 10:11:48;;;;;;;5.07;2.00;;;;;;;17.96;77.03;99536.75;4949143;28;20108;-81
2022/09/15 10:14:32;;;;;;;6.78;2.08;;;;;;;18.10;80.28;99533.16;4964818;28;20129;-82
2022/09/15 10:17:07;;;;;;;4.28;1.60;;;;;;;17.89;76.88;99537.28;4996113;28;20069;-81
2022/09/15 10:19:43;;;;;;;5.22;2.13;;;;;;;17.56;78.97;99532.38;4975818;28;20054;-80
2022/09/15 10:22:27;;;;;;;4.00;1.52;;;;;;;17.33;79.06;99540.13;4989097;28;20046;-82
2022/09/15 10:24:54;;;;;;;;;;;;;;;17.15;81.56;99536.88;4965428;28;20093;-80
2022/09/15 10:27:24;;;;;;;3.83;1.60;;;;;;;16.95;79.66;99542.63;4976629;28;20292;-83
2022/09/15 10:29:50;;;;;;;3.70;1.85;;;;;;;16.89;79.79;99551.88;4978450;28;20535;-81
2022/09/15 10:32:26;;;;;;;3.05;1.75;;;;;;;16.86;80.84;99549.41;5002808;28;20557;-81
2022/09/15 10:35:00;;;;;;;3.90;1.50;;;;;;;17.06;82.26;99544.59;4998431;28;20066;-82
2022/09/15 10:37:35;;;;;;;;;;;;;;;16.98;80.81;99538.88;4992756;22;20049;-80
2022/09/15 10:40:27;;;;;;;2.17;1.55;;;;;;;16.80;80.17;99546.25;5032805;28;19928;-82
2022/09/15 10:43:12;;;;;;;2.80;1.70;;;;;;;16.61;83.91;99550.06;5004251;28;20041;-82
2022/09/15 10:45:45;;;;;;;3.00;1.85;;;;;;;16.58;82.40;99552.09;5025595;28;20033;-81
2022/09/15 10:48:18;;;;;;;2.90;1.85;;;;;;;16.84;84.09;99543.31;5009174;28;20038;-79
2022/09/15 10:50:54;;;;;;;5.53;1.50;;;;;;;17.18;80.06;99543.81;5022869;28;20038;-80
2022/09/15 10:53:32;;;;;;;2.30;1.60;;;;;;;17.40;81.02;99533.44;5021149;28;20065;-80
2022/09/15 10:56:06;;;;;;;5.55;1.92;;;;;;;17.47;76.96;99527.66;5028772;28;20041;-80
2022/09/15 10:58:42;;;;;;;4.40;1.27;;;;;;;17.57;77.64;99539.44;5024911;28;20033;-80
2022/09/15 11:01:26;;;;;;;4.28;1.48;;;;;;;17.48;73.75;99534.72;5001362;28;20704;-81
2022/09/15 11:04:10;;;;;;;2.70;1.27;;;;;;;17.97;71.69;99534.94;5028206;28;20049;-80
2022/09/15 11:07:04;;;;;;;4.97;2.15;;;;;;;18.10;68.39;99534.97;5007330;28;20052;-81
2022/09/15 11:09:44;;;;;;;2.97;1.15;;;;;;;18.49;71.01;99533.97;5004771;28;20038;-80
2022/09/15 11:12:58;;;;;;;2.92;1.38;;;;;;;18.63;69.17;99536.53;4991066;28;20048;-80
2022/09/15 11:15:53;;;;;;;2.40;1.33;;;;;;;18.26;66.47;99532.94;4970755;28;20110;-83
2022/09/15 11:18:20;;;;;;;1.65;1.20;;;;;;;17.69;66.73;99535.94;5022510;28;20132;-81
2022/09/15 11:21:06;;;;;;;24.52;4.63;;;;;;;17.72;71.40;99549.13;5028058;28;20502;-80
2022/09/15 11:23:36;;;;;;;3.70;1.35;;;;;;;17.57;72.70;99534.09;5014568;28;20445;-80
2022/09/15 11:26:06;;;;;;;3.42;1.63;;;;;;;17.72;72.34;99546.44;5009499;28;20490;-80
2022/09/15 11:28:40;;;;;;;3.53;1.40;;;;;;;17.76;73.22;99528.41;5041258;28;20616;-80
2022/09/15 11:31:26;;;;;;;;;;;;;;;17.49;67.46;99529.28;5023728;28;20048;-82
2022/09/15 11:34:03;;;;;;;3.88;1.60;;;;;;;17.44;70.54;99523.38;5028721;28;19956;-80
2022/09/15 11:36:40;;;;;;;2.22;1.17;;;;;;;17.27;68.82;99524.50;4989698;28;20052;-80
2022/09/15 11:39:19;;;;;;;2.75;1.20;;;;;;;17.24;72.25;99522.06;5020641;28;20517;-80
2022/09/15 11:42:08;;;;;;;3.22;1.70;;;;;;;17.55;72.40;99517.31;5011017;28;20108;-80
2022/09/15 11:44:38;;;;;;;2.97;1.10;;;;;;;17.76;71.13;99523.94;4996354;28;20041;-80
2022/09/15 11:47:26;;;;;;;3.42;1.15;;;;;;;17.98;70.67;99515.28;5011954;28;20160;-80
2022/09/15 11:50:01;;;;;;;3.08;1.30;;;;;;;17.97;68.69;99518.91;5013481;28;20615;-81